Report METAR

 

LIML - Milano/Linate, Italy
Distance from station: NO 27km
Dati ricevuti: 06/10/2022 18:50
Parz. nuvoloso
Parz. nuvoloso
 Vento da E
Vento: E 7 km/h
Temperatura: 22°C
P.to Rugiada: 14°C
Umidità: 61%
Barometro: 1027 hPa
Nuvole: Parz. nuvoloso
Visibility: 9 km
2022/10/06 16:50 LIML 061650Z 08004KT 9000 NSC 22/14 Q1027 NOSIG
LIME - Bergamo/Orio Ser, Italy
Distance from station: NNE 43km
Dati ricevuti: 06/10/2022 18:50
Mist, Parz. nuvoloso
Mist, Parz. nuvoloso
 Vento da SE
Vento: SE 6 km/h
Temperatura: 20°C
P.to Rugiada: 14°C
Umidità: 69%
Barometro: 1028 hPa
Summary: Mist
Nuvole: Parz. nuvoloso
Visibility: 5 km
2022/10/06 16:50 LIME 061650Z 13003KT 5000 BR NSC 20/14 Q1028 NOSIG
 
LIMS - Piacenza, it-Afb, Italy
Distance from station: SSE 45km
Dati ricevuti: 06/10/2022 18:55
Mist, Parz. nuvoloso
Mist, Parz. nuvoloso
 Vento da SE
Vento: SE 6 km/h
Temperatura: 21°C
P.to Rugiada: 19°C
Umidità: 88%
Barometro: 1026 hPa
Summary: Mist
Nuvole: Parz. nuvoloso
Visibility: 5 km
2022/10/06 16:55 LIMS 061655Z 13003KT 5000 BR NSC 21/19 Q1026
LIPO - Brescia/Montichi, Italy
Distance from station: ENE 65km
Dati ricevuti: 06/10/2022 18:50
Sereno
Sereno
 Vento da Variabile
Vento: Variabile 4 km/h
Temperatura: 22°C
P.to Rugiada: 14°C
Umidità: 61%
Barometro: 1027 hPa
Nuvole: Sereno
Visibility: 8 km
2022/10/06 16:50 LIPO 061650Z AUTO VRB02KT 8000 NCD 22/14 Q1027